Time;durP1;ratioP1;P1;durP2;ratioP2;P2;SDS_P1;SDS_P2;PMS_P1;PMS_P2;Temp;Humidity;BMP_temperature;BMP_pressure;BME280_temperature;BME280_humidity;BME280_pressure;Samples;Min_cycle;Max_cycle;Signal;HPM_P1;HPM_P2
2021/08/01 00:03:25;;;;;;;15.47;9.30;;;;;14.40;100512.00;;;;10439304;28;20281;-80
2021/08/01 00:08:27;;;;;;;17.37;9.43;;;;;14.40;100496.00;;;;10456764;28;20211;-81
2021/08/01 00:13:29;;;;;;;18.63;8.80;;;;;14.40;100497.00;;;;10451650;28;20197;-80
2021/08/01 00:18:31;;;;;;;16.27;9.03;;;;;14.40;100487.00;;;;10432875;28;20203;-81
2021/08/01 00:23:34;;;;;;;21.97;8.90;;;;;14.40;100497.00;;;;10463653;28;20553;-81
2021/08/01 00:28:36;;;;;;;12.97;8.93;;;;;14.40;100488.00;;;;10439288;28;20538;-81
2021/08/01 00:33:38;;;;;;;13.47;8.47;;;;;14.30;100493.00;;;;10413891;28;20221;-81
2021/08/01 00:38:40;;;;;;;15.53;9.10;;;;;14.30;100495.00;;;;10471913;28;20228;-81
2021/08/01 00:43:41;;;;;;;16.17;8.43;;;;;14.30;100477.00;;;;10447749;28;20198;-81
2021/08/01 00:48:44;;;;;;;16.83;9.10;;;;;14.20;100479.00;;;;10445156;28;20198;-81
2021/08/01 00:53:47;;;;;;;14.17;9.23;;;;;14.20;100479.00;;;;10458054;28;20233;-82
2021/08/01 00:58:50;;;;;;;16.43;7.60;;;;;14.20;100476.00;;;;10467052;28;20189;-80
2021/08/01 01:04:22;;;;;;;15.53;7.80;;;;;14.10;100480.00;;;;10429372;28;20244;-81
2021/08/01 01:09:35;;;;;;;16.13;8.27;;;;;14.00;100480.00;;;;10384416;28;20194;-81
2021/08/01 01:15:01;;;;;;;18.03;8.20;;;;;14.00;100480.00;;;;10451028;28;20263;-81
2021/08/01 01:20:16;;;;;;;15.83;8.30;;;;;13.90;100478.00;;;;10476820;28;20194;-81
2021/08/01 01:25:42;;;;;;;20.23;7.93;;;;;13.90;100478.00;;;;10450909;28;20229;-80
2021/08/01 01:30:51;;;;;;;18.50;8.90;;;;;13.80;100476.00;;;;10451794;28;20281;-81
2021/08/01 01:35:57;;;;;;;18.23;7.80;;;;;13.70;100482.00;;;;10437778;28;20202;-80
2021/08/01 01:41:00;;;;;;;16.00;8.23;;;;;13.70;100478.00;;;;10418358;28;20221;-81
2021/08/01 01:46:12;;;;;;;19.33;8.73;;;;;13.60;100473.00;;;;10452435;28;20198;-80
2021/08/01 01:51:15;;;;;;;16.57;8.23;;;;;13.60;100470.00;;;;10451298;28;20221;-82
2021/08/01 01:56:19;;;;;;;21.23;10.00;;;;;13.60;100465.00;;;;10446219;28;20236;-81
2021/08/01 02:01:21;;;;;;;24.20;9.47;;;;;13.50;100474.00;;;;10456719;28;20197;-81
2021/08/01 02:06:24;;;;;;;19.83;8.33;;;;;13.40;100471.00;;;;10435499;28;20235;-80
2021/08/01 02:12:10;;;;;;;13.60;8.53;;;;;13.30;100476.00;;;;10489495;28;20189;-81
2021/08/01 02:17:19;;;;;;;18.47;9.27;;;;;13.30;100477.00;;;;10447073;28;20221;-80
2021/08/01 02:22:22;;;;;;;18.50;9.67;;;;;13.40;100479.00;;;;10458485;28;20798;-81
2021/08/01 02:27:25;;;;;;;27.13;10.53;;;;;13.60;100479.00;;;;10437838;28;20193;-80
2021/08/01 02:32:30;;;;;;;18.47;10.43;;;;;13.70;100473.00;;;;10449358;28;20214;-81
2021/08/01 02:37:36;;;;;;;22.17;9.50;;;;;13.80;100465.00;;;;10439054;28;20545;-80
2021/08/01 02:42:40;;;;;;;29.87;11.73;;;;;13.90;100473.00;;;;10491023;28;20182;-80
2021/08/01 02:47:43;;;;;;;26.00;11.33;;;;;14.00;100477.00;;;;10435878;28;20198;-81
2021/08/01 02:52:58;;;;;;;21.40;9.90;;;;;14.10;100481.00;;;;10414662;28;20278;-80
2021/08/01 02:58:01;;;;;;;25.50;10.70;;;;;14.10;100475.00;;;;10433029;28;20186;-81
2021/08/01 03:03:10;;;;;;;25.57;10.70;;;;;14.20;100471.00;;;;10432598;28;20184;-80
2021/08/01 03:08:13;;;;;;;23.17;10.03;;;;;14.20;100472.00;;;;10455371;28;20237;-80
2021/08/01 03:13:16;;;;;;;22.73;11.00;;;;;14.30;100478.00;;;;10430594;28;20210;-80
2021/08/01 03:18:19;;;;;;;19.43;9.80;;;;;14.30;100480.00;;;;10419903;28;20217;-81
2021/08/01 03:23:21;;;;;;;20.63;10.53;;;;;14.30;100478.00;;;;10485639;28;20247;-80
2021/08/01 03:28:41;;;;;;;27.63;9.93;;;;;14.30;100477.00;;;;10474857;28;20200;-81
2021/08/01 03:33:43;;;;;;;24.87;10.43;;;;;14.30;100485.00;;;;10450670;28;20210;-81
2021/08/01 03:38:46;;;;;;;21.73;9.60;;;;;14.40;100484.00;;;;10437941;28;20196;-81
2021/08/01 03:44:07;;;;;;;20.23;10.50;;;;;14.40;100476.00;;;;10452633;28;20197;-81
2021/08/01 03:49:08;;;;;;;27.40;10.70;;;;;14.40;100477.00;;;;10436035;28;20189;-80
2021/08/01 03:54:10;;;;;;;25.37;11.33;;;;;14.40;100473.00;;;;10463793;28;20210;-81
2021/08/01 03:59:13;;;;;;;25.57;12.07;;;;;14.40;100470.00;;;;10420847;28;20189;-81
2021/08/01 04:04:15;;;;;;;23.00;12.57;;;;;14.40;100482.00;;;;10455328;28;20209;-81
2021/08/01 04:09:17;;;;;;;26.27;13.03;;;;;14.40;100477.00;;;;10466545;28;20247;-81
2021/08/01 04:14:18;;;;;;;32.00;12.27;;;;;14.50;100478.00;;;;10434344;28;20213;-81
2021/08/01 04:19:20;;;;;;;29.93;13.03;;;;;14.50;100481.00;;;;10415882;28;20194;-81
2021/08/01 04:24:22;;;;;;;27.23;13.93;;;;;14.50;100481.00;;;;10414795;28;20204;-81
2021/08/01 04:29:24;;;;;;;26.63;13.00;;;;;14.50;100471.00;;;;10416280;28;20198;-81
2021/08/01 04:34:26;;;;;;;31.07;14.00;;;;;14.60;100470.00;;;;10467174;28;20237;-82
2021/08/01 04:39:28;;;;;;;30.77;13.43;;;;;14.60;100469.00;;;;10446805;28;20186;-81
2021/08/01 04:44:30;;;;;;;29.83;12.67;;;;;14.60;100470.00;;;;10434763;28;20193;-81
2021/08/01 04:49:32;;;;;;;31.00;13.10;;;;;14.70;100476.00;;;;10451647;28;20204;-80
2021/08/01 04:54:37;;;;;;;25.30;12.37;;;;;14.80;100483.00;;;;10444549;28;20214;-81
2021/08/01 04:59:39;;;;;;;29.83;12.47;;;;;14.80;100481.00;;;;10421749;28;20198;-81
2021/08/01 05:04:41;;;;;;;36.87;14.10;;;;;14.80;100481.00;;;;10469247;28;20209;-81
2021/08/01 05:09:43;;;;;;;33.47;13.30;;;;;14.90;100475.00;;;;10439689;28;20186;-81
2021/08/01 05:14:45;;;;;;;31.97;13.80;;;;;15.00;100471.00;;;;10439632;28;20213;-81
2021/08/01 05:19:48;;;;;;;30.73;14.53;;;;;15.10;100471.00;;;;10463106;28;20646;-81
2021/08/01 05:24:49;;;;;;;30.53;14.60;;;;;15.20;100474.00;;;;10420616;28;20673;-81
2021/08/01 05:29:51;;;;;;;34.20;13.83;;;;;15.20;100478.00;;;;10455786;28;20186;-81
2021/08/01 05:34:53;;;;;;;28.53;14.17;;;;;15.20;100482.00;;;;10468406;28;20218;-80
2021/08/01 05:39:56;;;;;;;29.33;13.63;;;;;15.20;100480.00;;;;10421265;28;20201;-80
2021/08/01 05:44:58;;;;;;;32.80;14.47;;;;;15.20;100477.00;;;;10460583;28;20197;-81
2021/08/01 05:50:01;;;;;;;33.17;14.23;;;;;15.20;100478.00;;;;10440949;28;20256;-79
2021/08/01 05:55:03;;;;;;;26.23;13.53;;;;;15.40;100482.00;;;;10455844;28;20194;-81
2021/08/01 06:00:06;;;;;;;30.77;15.20;;;;;15.50;100486.00;;;;10422243;28;20197;-80
2021/08/01 06:05:08;;;;;;;28.07;15.17;;;;;15.60;100477.00;;;;10453111;28;20245;-81
2021/08/01 06:10:10;;;;;;;29.97;15.90;;;;;15.70;100472.00;;;;10437706;28;20189;-81
2021/08/01 06:15:12;;;;;;;31.00;15.13;;;;;16.00;100472.00;;;;10458257;28;20232;-81
2021/08/01 06:20:14;;;;;;;30.37;16.17;;;;;16.20;100487.00;;;;10433882;28;20204;-81
2021/08/01 06:25:16;;;;;;;32.20;16.97;;;;;16.40;100489.00;;;;10437131;28;20239;-81
2021/08/01 06:30:18;;;;;;;31.17;16.00;;;;;16.50;100498.00;;;;10456921;28;20181;-82
2021/08/01 06:35:20;;;;;;;24.48;14.98;;;;;16.70;100497.00;;;;10432540;28;20214;-82
2021/08/01 06:40:21;;;;;;;25.52;14.18;;;;;17.00;100500.00;;;;10457088;28;20239;-81
2021/08/01 06:45:23;;;;;;;27.98;15.13;;;;;17.80;100520.00;;;;10470485;28;20315;-81
2021/08/01 06:50:25;;;;;;;21.10;13.07;;;;;18.30;100528.00;;;;10436475;28;20198;-82
2021/08/01 06:55:27;;;;;;;19.35;12.55;;;;;18.90;100538.00;;;;10454081;28;20198;-81
2021/08/01 07:00:29;;;;;;;21.60;10.75;;;;;20.00;100545.00;;;;10415981;28;20252;-81
2021/08/01 07:05:31;;;;;;;15.80;9.55;;;;;20.10;100546.00;;;;10440796;28;20553;-81
2021/08/01 07:10:33;;;;;;;12.80;8.48;;;;;20.00;100555.00;;;;10472361;28;20281;-81
2021/08/01 07:15:37;;;;;;;17.30;9.57;;;;;20.40;100555.00;;;;10418350;28;20214;-81
2021/08/01 07:20:39;;;;;;;12.30;8.77;;;;;19.90;100562.00;;;;10424266;28;20217;-80
2021/08/01 07:25:41;;;;;;;15.80;8.98;;;;;19.50;100559.00;;;;10446347;28;20201;-80
2021/08/01 07:30:43;;;;;;;16.08;9.35;;;;;19.50;100561.00;;;;10455022;28;20225;-81
2021/08/01 07:35:45;;;;;;;13.23;9.40;;;;;19.10;100546.00;;;;10472563;28;20676;-80
2021/08/01 07:40:47;;;;;;;18.00;11.05;;;;;19.20;100544.00;;;;10467514;28;20616;-81
2021/08/01 07:45:48;;;;;;;16.60;10.93;;;;;19.50;100548.00;;;;10475586;28;20201;-81
2021/08/01 07:50:52;;;;;;;13.05;11.10;;;;;20.10;100547.00;;;;10444626;28;20242;-81
2021/08/01 07:55:54;;;;;;;15.68;12.07;;;;;20.40;100548.00;;;;10445643;28;20217;-82
2021/08/01 08:00:57;;;;;;;16.52;11.70;;;;;20.20;100543.00;;;;10474025;28;20281;-82
2021/08/01 08:06:05;;;;;;;19.67;12.55;;;;;20.10;100542.00;;;;10463776;28;20186;-82
2021/08/01 08:11:06;;;;;;;23.83;13.38;;;;;20.60;100547.00;;;;10419405;28;20194;-82
2021/08/01 08:16:08;;;;;;;17.45;13.05;;;;;20.50;100560.00;;;;10452830;28;20206;-82
2021/08/01 08:21:10;;;;;;;26.45;13.20;;;;;20.80;100557.00;;;;10432965;28;20769;-82
2021/08/01 08:26:12;;;;;;;17.38;13.55;;;;;21.00;100556.00;;;;10466510;28;20237;-82
2021/08/01 08:31:14;;;;;;;15.38;12.68;;;;;21.00;100555.00;;;;10470309;28;20591;-82
2021/08/01 08:36:16;;;;;;;18.23;13.13;;;;;21.40;100548.00;;;;10435698;28;20209;-82
2021/08/01 08:41:20;;;;;;;18.63;11.98;;;;;22.00;100548.00;;;;10471806;28;20684;-82
2021/08/01 08:46:22;;;;;;;17.17;12.95;;;;;21.80;100555.00;;;;10449741;28;20205;-82
2021/08/01 08:51:25;;;;;;;17.05;12.68;;;;;22.30;100549.00;;;;10462348;28;20197;-82
2021/08/01 08:56:27;;;;;;;14.57;12.82;;;;;22.90;100540.00;;;;10447648;28;20205;-82
2021/08/01 09:01:29;;;;;;;18.67;14.38;;;;;22.60;100544.00;;;;10456503;28;20201;-82
2021/08/01 09:06:32;;;;;;;19.33;14.10;;;;;22.50;100540.00;;;;10471946;28;20198;-82
2021/08/01 09:11:34;;;;;;;17.38;13.45;;;;;22.40;100543.00;;;;10445353;28;20204;-82
2021/08/01 09:16:43;;;;;;;15.93;13.13;;;;;22.30;100544.00;;;;10468701;28;20204;-82
2021/08/01 09:21:46;;;;;;;14.63;12.15;;;;;22.30;100546.00;;;;10421210;28;20855;-82
2021/08/01 09:26:52;;;;;;;13.50;12.00;;;;;23.10;100534.00;;;;10329239;28;20212;-82
2021/08/01 09:31:59;;;;;;;14.18;12.25;;;;;24.10;100528.00;;;;10333133;28;20291;-82
2021/08/01 09:37:03;;;;;;;17.08;10.93;;;;;25.40;100536.00;;;;10342766;28;20232;-79
2021/08/01 09:42:06;;;;;;;13.30;10.23;;;;;25.40;100527.00;;;;10347022;28;20259;-78
2021/08/01 09:47:21;;;;;;;16.50;10.68;;;;;25.80;100541.00;;;;10341897;28;20202;-79
2021/08/01 09:52:24;;;;;;;10.27;9.20;;;;;25.90;100532.00;;;;10322940;28;20195;-79
2021/08/01 09:57:26;;;;;;;11.05;9.48;;;;;26.00;100534.00;;;;10359121;28;20215;-80
2021/08/01 10:02:39;;;;;;;13.77;10.32;;;;;25.60;100529.00;;;;10326565;28;20192;-79
2021/08/01 10:07:44;;;;;;;10.50;8.40;;;;;25.60;100536.00;;;;10316889;28;20196;-82
2021/08/01 10:12:48;;;;;;;13.40;9.40;;;;;24.10;100539.00;;;;10363977;28;20195;-82
2021/08/01 10:17:51;;;;;;;12.88;8.88;;;;;24.10;100523.00;;;;10368390;28;20204;-81
2021/08/01 10:22:54;;;;;;;8.65;7.40;;;;;25.30;100515.00;;;;10333244;28;20260;-82
2021/08/01 10:27:58;;;;;;;8.15;7.00;;;;;26.60;100488.00;;;;10323427;28;20287;-79
2021/08/01 10:33:09;;;;;;;7.25;5.80;;;;;27.30;100493.00;;;;10333469;28;20234;-80
2021/08/01 10:38:14;;;;;;;5.72;5.20;;;;;27.70;100501.00;;;;10337635;28;20212;-78
2021/08/01 10:43:19;;;;;;;5.57;4.40;;;;;27.90;100492.00;;;;10352933;28;20195;-78
2021/08/01 10:48:23;;;;;;;6.32;4.65;;;;;27.00;100493.00;;;;10273816;28;20203;-79
2021/08/01 10:53:28;;;;;;;7.60;4.43;;;;;24.90;100501.00;;;;10335791;28;20191;-80
2021/08/01 10:58:34;;;;;;;10.30;6.78;;;;;21.70;100521.00;;;;10350014;28;20287;-80
2021/08/01 11:03:39;;;;;;;15.27;9.35;;;;;19.10;100525.00;;;;10328777;28;20203;-79
2021/08/01 11:09:06;;;;;;;10.90;9.45;;;;;17.90;100518.00;;;;10319377;28;20681;-80
2021/08/01 11:14:45;;;;;;;11.98;10.68;;;;;17.10;100504.00;;;;10334356;28;20697;-80
2021/08/01 11:19:47;;;;;;;15.27;13.43;;;;;16.70;100491.00;;;;10312161;28;20218;-81
2021/08/01 11:25:25;;;;;;;18.55;13.27;;;;;16.60;100516.00;;;;10310501;28;20212;-82
2021/08/01 11:30:26;;;;;;;14.73;13.18;;;;;16.50;100519.00;;;;10323939;28;20196;-81
2021/08/01 11:35:29;;;;;;;19.45;14.10;;;;;16.50;100519.00;;;;10330864;28;20299;-81
2021/08/01 11:40:45;;;;;;;16.00;14.02;;;;;17.00;100523.00;;;;10331778;28;20316;-82
2021/08/01 11:46:01;;;;;;;15.23;13.32;;;;;17.40;100537.00;;;;10369301;28;20218;-81
2021/08/01 11:51:07;;;;;;;13.23;11.27;;;;;17.60;100554.00;;;;10352529;28;20197;-80
2021/08/01 11:56:10;;;;;;;9.43;8.52;;;;;17.60;100551.00;;;;10344065;28;20210;-80
2021/08/01 12:01:14;;;;;;;8.50;7.60;;;;;17.50;100554.00;;;;10347527;28;20192;-80
2021/08/01 12:06:45;;;;;;;10.05;7.72;;;;;17.60;100560.00;;;;10333736;28;20259;-79
2021/08/01 12:11:50;;;;;;;10.15;8.60;;;;;17.70;100563.00;;;;10366555;28;20188;-81
2021/08/01 12:16:55;;;;;;;9.00;8.10;;;;;17.90;100571.00;;;;10317792;28;20257;-79
2021/08/01 12:22:01;;;;;;;9.23;8.23;;;;;18.20;100578.00;;;;10345826;28;20195;-78
2021/08/01 12:27:06;;;;;;;5.78;5.28;;;;;18.70;100587.00;;;;10337552;28;20200;-78
2021/08/01 12:32:25;;;;;;;4.90;4.40;;;;;19.10;100603.00;;;;10348220;28;20216;-79
2021/08/01 12:37:28;;;;;;;8.88;4.03;;;;;19.60;100609.00;;;;10346997;28;20227;-78
2021/08/01 12:42:30;;;;;;;4.18;3.85;;;;;19.80;100605.00;;;;10362161;28;20199;-79
2021/08/01 12:47:32;;;;;;;4.93;4.47;;;;;20.20;100602.00;;;;10360857;28;20219;-78
2021/08/01 12:52:34;;;;;;;6.00;5.40;;;;;20.70;100602.00;;;;10343194;28;20730;-79
2021/08/01 12:58:09;;;;;;;5.68;4.80;;;;;21.00;100609.00;;;;10335976;28;20211;-78
2021/08/01 13:03:11;;;;;;;5.38;4.88;;;;;21.10;100597.00;;;;10349907;28;20204;-78
2021/08/01 13:08:16;;;;;;;6.63;4.80;;;;;21.30;100611.00;;;;10368297;28;20695;-78
2021/08/01 13:13:19;;;;;;;7.22;6.53;;;;;21.20;100610.00;;;;10350196;28;20202;-78
2021/08/01 13:18:41;;;;;;;8.88;7.32;;;;;21.40;100607.00;;;;10350107;28;20238;-78
2021/08/01 13:23:45;;;;;;;8.35;7.55;;;;;21.80;100618.00;;;;10361966;28;20206;-78
2021/08/01 13:28:58;;;;;;;9.15;6.53;;;;;21.90;100603.00;;;;10350978;28;20628;-78
2021/08/01 13:34:02;;;;;;;6.93;6.22;;;;;22.00;100608.00;;;;10346743;28;20219;-78
2021/08/01 13:39:04;;;;;;;7.05;6.45;;;;;22.50;100610.00;;;;10362489;28;20203;-78
2021/08/01 13:44:24;;;;;;;6.00;5.50;;;;;22.50;100621.00;;;;10367858;28;20207;-79
2021/08/01 13:49:26;;;;;;;6.82;6.10;;;;;21.60;100632.00;;;;10349326;28;20192;-78
2021/08/01 13:54:28;;;;;;;6.32;4.35;;;;;20.60;100627.00;;;;10362226;28;20254;-79
2021/08/01 13:59:30;;;;;;;6.93;4.60;;;;;20.00;100620.00;;;;10375052;28;20337;-78
2021/08/01 14:04:33;;;;;;;5.43;4.32;;;;;19.60;100615.00;;;;10353025;28;20188;-78
2021/08/01 14:09:36;;;;;;;3.72;3.42;;;;;19.20;100612.00;;;;10342053;28;20189;-79
2021/08/01 14:14:38;;;;;;;5.72;4.65;;;;;18.90;100606.00;;;;10311595;28;20737;-78
2021/08/01 14:19:41;;;;;;;8.82;4.93;;;;;18.90;100600.00;;;;10346119;28;20226;-79
2021/08/01 14:24:43;;;;;;;5.80;5.30;;;;;18.90;100591.00;;;;10365656;28;20242;-78
2021/08/01 14:29:45;;;;;;;6.25;5.25;;;;;19.10;100582.00;;;;10349054;28;20223;-79
2021/08/01 14:34:47;;;;;;;6.35;5.75;;;;;19.40;100588.00;;;;10380794;28;20969;-79
2021/08/01 14:39:49;;;;;;;6.70;4.93;;;;;19.80;100579.00;;;;10328702;28;20667;-79
2021/08/01 14:44:51;;;;;;;5.28;4.25;;;;;20.00;100605.00;;;;10351515;28;20227;-80
2021/08/01 14:49:54;;;;;;;4.50;4.10;;;;;19.90;100599.00;;;;10323693;28;20188;-79
2021/08/01 14:54:55;;;;;;;6.05;4.60;;;;;20.00;100606.00;;;;10342901;28;20532;-79
2021/08/01 15:00:06;;;;;;;5.35;4.85;;;;;20.50;100618.00;;;;10362155;28;20546;-79
2021/08/01 15:05:14;;;;;;;5.70;5.05;;;;;20.70;100626.00;;;;10354264;28;20219;-80
2021/08/01 15:10:23;;;;;;;5.78;5.28;;;;;20.90;100631.00;;;;10359673;28;20199;-79
2021/08/01 15:15:34;;;;;;;4.80;4.35;;;;;21.40;100640.00;;;;10354320;28;20203;-79
2021/08/01 15:20:39;;;;;;;8.77;4.65;;;;;21.80;100644.00;;;;10362587;28;20249;-79
2021/08/01 15:25:49;;;;;;;5.97;2.78;;;;;21.80;100654.00;;;;10358816;28;20194;-78
2021/08/01 15:30:52;;;;;;;3.80;3.42;;;;;21.10;100649.00;;;;10342176;28;20197;-79
2021/08/01 15:35:54;;;;;;;3.42;3.10;;;;;20.80;100651.00;;;;10384945;28;20292;-79
2021/08/01 15:40:58;;;;;;;3.30;3.00;;;;;21.00;100652.00;;;;10372024;28;20198;-79
2021/08/01 15:46:01;;;;;;;3.28;3.00;;;;;21.10;100661.00;;;;10361812;28;20210;-79
2021/08/01 15:51:06;;;;;;;3.42;3.13;;;;;20.70;100664.00;;;;10360633;28;20250;-79
2021/08/01 15:56:11;;;;;;;3.70;3.40;;;;;20.50;100670.00;;;;10341404;28;20223;-79
2021/08/01 16:01:30;;;;;;;4.40;4.00;;;;;20.30;100666.00;;;;10362008;28;20195;-79
2021/08/01 16:06:37;;;;;;;5.20;4.43;;;;;20.10;100670.00;;;;10353026;28;20670;-78
2021/08/01 16:11:54;;;;;;;5.03;4.60;;;;;20.20;100672.00;;;;10374778;28;20198;-79
2021/08/01 16:17:27;;;;;;;4.82;4.32;;;;;20.70;100659.00;;;;10344782;28;20249;-79
2021/08/01 16:22:29;;;;;;;9.88;5.40;;;;;21.60;100661.00;;;;10341743;28;20586;-79
2021/08/01 16:27:31;;;;;;;5.38;4.70;;;;;22.40;100662.00;;;;10349686;28;20274;-78
2021/08/01 16:32:35;;;;;;;5.30;4.80;;;;;21.70;100669.00;;;;10374388;28;20234;-78
2021/08/01 16:37:38;;;;;;;8.10;4.10;;;;;20.70;100661.00;;;;10336988;28;20214;-79
2021/08/01 16:42:51;;;;;;;6.82;5.15;;;;;19.90;100654.00;;;;10351981;28;20241;-78
2021/08/01 16:48:20;;;;;;;5.55;5.05;;;;;19.40;100648.00;;;;10378866;28;20219;-78
2021/08/01 16:53:57;;;;;;;5.45;4.95;;;;;19.40;100643.00;;;;10354052;28;20187;-78
2021/08/01 16:59:02;;;;;;;6.03;5.03;;;;;19.50;100634.00;;;;10343792;28;20211;-78
2021/08/01 17:04:24;;;;;;;6.30;5.35;;;;;19.80;100635.00;;;;10339607;28;20192;-79
2021/08/01 17:09:28;;;;;;;8.38;5.80;;;;;20.10;100626.00;;;;10365089;28;20744;-79
2021/08/01 17:14:30;;;;;;;7.55;5.38;;;;;20.40;100638.00;;;;10365428;28;20203;-78
2021/08/01 17:19:32;;;;;;;8.57;5.65;;;;;20.20;100648.00;;;;10351678;28;20215;-78
2021/08/01 17:24:54;;;;;;;6.22;5.68;;;;;19.60;100635.00;;;;10349219;28;20199;-78
2021/08/01 17:30:01;;;;;;;7.32;6.45;;;;;19.00;100653.00;;;;10371295;28;20595;-78
2021/08/01 17:35:13;;;;;;;7.45;6.75;;;;;18.50;100659.00;;;;10365568;28;20219;-78
2021/08/01 17:40:25;;;;;;;7.53;6.05;;;;;18.20;100649.00;;;;10332691;28;20589;-78
2021/08/01 17:45:28;;;;;;;7.78;6.95;;;;;17.90;100658.00;;;;10355584;28;20236;-78
2021/08/01 17:50:30;;;;;;;9.60;6.78;;;;;17.80;100654.00;;;;10348743;28;20678;-78
2021/08/01 17:55:32;;;;;;;9.93;7.97;;;;;17.60;100658.00;;;;10317239;28;20216;-78
2021/08/01 18:00:36;;;;;;;10.27;8.10;;;;;17.30;100647.00;;;;10348314;28;20622;-77
2021/08/01 18:05:42;;;;;;;11.38;9.85;;;;;17.10;100645.00;;;;10323387;28;20227;-78
2021/08/01 18:10:53;;;;;;;12.15;10.07;;;;;16.90;100644.00;;;;10332769;28;20289;-79
2021/08/01 18:15:57;;;;;;;11.82;10.27;;;;;16.90;100641.00;;;;10361758;28;20200;-79
2021/08/01 18:21:08;;;;;;;10.30;9.30;;;;;16.80;100654.00;;;;10361025;28;20199;-79
2021/08/01 18:26:10;;;;;;;11.23;9.77;;;;;16.80;100652.00;;;;10348757;28;20228;-79
2021/08/01 18:31:16;;;;;;;11.30;9.95;;;;;16.80;100655.00;;;;10370897;28;20191;-79
2021/08/01 18:36:20;;;;;;;11.10;10.00;;;;;16.80;100655.00;;;;10346383;28;20214;-79
2021/08/01 18:41:29;;;;;;;11.90;9.23;;;;;16.80;100661.00;;;;10385445;28;20198;-79
2021/08/01 18:46:41;;;;;;;10.20;8.55;;;;;16.70;100664.00;;;;10352310;28;20191;-79
2021/08/01 18:51:45;;;;;;;9.27;7.88;;;;;16.50;100672.00;;;;10343554;28;20187;-79
2021/08/01 18:56:51;;;;;;;9.00;8.10;;;;;16.40;100671.00;;;;10352500;28;20223;-79
2021/08/01 19:01:54;;;;;;;11.00;8.60;;;;;16.30;100681.00;;;;10359027;28;20206;-79
2021/08/01 19:06:57;;;;;;;10.82;9.15;;;;;16.30;100690.00;;;;10349933;28;20293;-79
2021/08/01 19:11:59;;;;;;;10.52;9.35;;;;;16.30;100707.00;;;;10342512;28;20200;-79
2021/08/01 19:17:08;;;;;;;11.40;10.20;;;;;16.30;100703.00;;;;10358622;28;20209;-80
2021/08/01 19:22:26;;;;;;;12.60;11.15;;;;;16.20;100714.00;;;;10349960;28;20198;-80
2021/08/01 19:27:29;;;;;;;13.80;11.77;;;;;16.20;100720.00;;;;10313412;28;20195;-79
2021/08/01 19:32:45;;;;;;;14.60;12.48;;;;;16.20;100724.00;;;;10343384;28;20215;-80
2021/08/01 19:37:47;;;;;;;14.40;12.93;;;;;16.20;100729.00;;;;10352535;28;20211;-79
2021/08/01 19:42:49;;;;;;;17.03;12.80;;;;;16.10;100743.00;;;;10363260;28;20229;-79
2021/08/01 19:47:51;;;;;;;16.10;12.63;;;;;16.10;100742.00;;;;10330502;28;20206;-79
2021/08/01 19:52:53;;;;;;;15.27;12.68;;;;;16.10;100764.00;;;;10345821;28;20191;-79
2021/08/01 19:57:55;;;;;;;13.47;12.07;;;;;16.10;100764.00;;;;10332074;28;20276;-79
2021/08/01 20:02:58;;;;;;;17.67;13.30;;;;;16.10;100763.00;;;;10337033;28;20203;-79
2021/08/01 20:08:01;;;;;;;19.17;15.55;;;;;16.10;100770.00;;;;10360046;28;20196;-79
2021/08/01 20:13:03;;;;;;;17.35;15.48;;;;;16.10;100771.00;;;;10336160;28;20195;-79
2021/08/01 20:18:06;;;;;;;20.02;15.70;;;;;16.10;100775.00;;;;10341522;28;20211;-79
2021/08/01 20:23:08;;;;;;;24.35;17.08;;;;;16.00;100782.00;;;;10362194;28;20191;-79
2021/08/01 20:28:10;;;;;;;20.60;17.48;;;;;16.00;100782.00;;;;10344701;28;20187;-79
2021/08/01 20:33:12;;;;;;;21.95;17.80;;;;;16.00;100779.00;;;;10344139;28;20215;-79
2021/08/01 20:38:14;;;;;;;20.83;16.93;;;;;15.90;100785.00;;;;10343910;28;20225;-79
2021/08/01 20:43:16;;;;;;;24.50;18.83;;;;;15.90;100780.00;;;;10327373;28;20208;-79
2021/08/01 20:48:18;;;;;;;26.47;19.17;;;;;15.90;100781.00;;;;10338062;28;20207;-79
2021/08/01 20:53:20;;;;;;;28.23;19.77;;;;;15.90;100785.00;;;;10377978;28;20202;-79
2021/08/01 20:58:22;;;;;;;26.77;20.67;;;;;16.00;100794.00;;;;10321312;28;20694;-80
2021/08/01 21:03:24;;;;;;;28.10;20.50;;;;;15.90;100776.00;;;;10344573;28;20207;-78
2021/08/01 21:08:26;;;;;;;29.00;21.03;;;;;15.90;100787.00;;;;10328887;28;20575;-80
2021/08/01 21:13:27;;;;;;;29.80;22.60;;;;;15.90;100793.00;;;;10344084;28;20196;-79
2021/08/01 21:18:29;;;;;;;29.07;21.50;;;;;15.90;100798.00;;;;10360953;28;20200;-80
2021/08/01 21:23:31;;;;;;;28.90;20.42;;;;;15.90;100796.00;;;;10360626;28;20203;-79
2021/08/01 21:28:33;;;;;;;25.37;20.23;;;;;15.90;100799.00;;;;10332772;28;20575;-81
2021/08/01 21:33:36;;;;;;;26.37;18.67;;;;;15.80;100799.00;;;;10331804;28;20222;-79
2021/08/01 21:38:39;;;;;;;25.00;17.80;;;;;15.80;100802.00;;;;10333893;28;20239;-79
2021/08/01 21:43:42;;;;;;;28.40;17.87;;;;;15.70;100798.00;;;;10367679;28;20216;-79
2021/08/01 21:48:44;;;;;;;21.37;16.00;;;;;15.60;100808.00;;;;10365787;28;20536;-79
2021/08/01 21:53:46;;;;;;;23.10;15.67;;;;;15.60;100800.00;;;;10341092;28;20603;-78
2021/08/01 21:58:48;;;;;;;21.53;15.63;;;;;15.50;100810.00;;;;10353976;28;20204;-79
2021/08/01 22:03:55;;;;;;;20.83;15.07;;;;;15.40;100811.00;;;;10370868;28;20203;-78
2021/08/01 22:08:58;;;;;;;23.43;14.90;;;;;15.30;100809.00;;;;10345420;28;20204;-78
2021/08/01 22:14:00;;;;;;;21.90;14.07;;;;;15.30;100809.00;;;;10328813;28;20196;-78
2021/08/01 22:19:02;;;;;;;18.97;13.27;;;;;15.20;100811.00;;;;10356674;28;20199;-78
2021/08/01 22:24:05;;;;;;;22.53;15.03;;;;;15.20;100808.00;;;;10355526;28;20226;-78
2021/08/01 22:29:12;;;;;;;23.37;14.43;;;;;15.20;100820.00;;;;10349106;28;20187;-78
2021/08/01 22:34:15;;;;;;;21.03;15.93;;;;;15.20;100814.00;;;;10326248;28;20282;-78
2021/08/01 22:39:21;;;;;;;25.43;16.27;;;;;15.20;100808.00;;;;10389244;28;20230;-78
2021/08/01 22:44:23;;;;;;;21.23;14.97;;;;;15.20;100810.00;;;;10366434;28;20259;-78
2021/08/01 22:49:25;;;;;;;18.37;13.90;;;;;15.20;100821.00;;;;10323857;28;20208;-79
2021/08/01 22:54:27;;;;;;;17.47;12.83;;;;;15.10;100818.00;;;;10361178;28;20192;-78
2021/08/01 22:59:29;;;;;;;24.03;13.63;;;;;15.00;100824.00;;;;10369336;28;20253;-78
2021/08/01 23:04:36;;;;;;;17.03;12.20;;;;;14.90;100830.00;;;;10349015;28;20199;-78
2021/08/01 23:09:43;;;;;;;19.00;12.30;;;;;14.80;100822.00;;;;10326544;28;20202;-78
2021/08/01 23:14:53;;;;;;;19.33;13.13;;;;;14.70;100817.00;;;;10380714;28;20187;-78
2021/08/01 23:20:01;;;;;;;17.57;11.53;;;;;14.70;100817.00;;;;10346952;28;20211;-78
2021/08/01 23:25:17;;;;;;;19.63;13.27;;;;;14.60;100816.00;;;;10351893;28;20676;-79
2021/08/01 23:30:19;;;;;;;16.40;12.47;;;;;14.50;100818.00;;;;10353152;28;20219;-78
2021/08/01 23:35:21;;;;;;;17.97;11.73;;;;;14.50;100819.00;;;;10343425;28;20223;-78
2021/08/01 23:40:23;;;;;;;18.50;12.93;;;;;14.40;100817.00;;;;10358233;28;20199;-79
2021/08/01 23:45:25;;;;;;;19.67;12.63;;;;;14.40;100824.00;;;;10361972;28;20210;-78
2021/08/01 23:50:27;;;;;;;23.63;12.90;;;;;14.40;100823.00;;;;10341312;28;20272;-78
2021/08/01 23:56:11;;;;;;;19.90;13.13;;;;;14.50;100812.00;;;;10344628;28;20237;-78
